Time;durP1;ratioP1;P1;durP2;ratioP2;P2;SDS_P1;SDS_P2;PMS_P1;PMS_P2;Temp;Humidity;BMP_temperature;BMP_pressure;BME280_temperature;BME280_humidity;BME280_pressure;Samples;Min_cycle;Max_cycle;Signal;HPM_P1;HPM_P2
2023/10/04 00:00:59;;;;;;;17.03;7.13;;;;;;;14.18;88.00;100746.48;1424298;91;21546;-89
2023/10/04 00:03:27;;;;;;;16.73;6.60;;;;;;;14.16;87.83;100733.86;1414845;92;22279;-88
2023/10/04 00:05:54;;;;;;;16.47;5.97;;;;;;;14.14;87.70;100735.84;1418692;92;21537;-88
2023/10/04 00:08:22;;;;;;;11.40;6.27;;;;;;;14.13;88.06;100734.19;1422179;92;22297;-88
2023/10/04 00:10:49;;;;;;;33.73;8.63;;;;;;;14.12;87.93;100730.67;1424820;92;21472;-86
2023/10/04 00:13:16;;;;;;;11.97;6.10;;;;;;;14.09;88.37;100734.99;1425217;91;21354;-88
2023/10/04 00:15:42;;;;;;;12.93;6.97;;;;;;;14.09;88.47;100739.48;1425376;91;22440;-89
2023/10/04 00:18:10;;;;;;;28.33;9.03;;;;;;;14.11;88.87;100738.84;1424373;91;21390;-88
2023/10/04 00:20:36;;;;;;;16.03;6.67;;;;;;;14.12;89.05;100752.47;1420177;91;22795;-89
2023/10/04 00:23:06;;;;;;;11.77;6.40;;;;;;;14.14;88.77;100753.15;1426271;92;21361;-86
2023/10/04 00:25:36;;;;;;;13.50;6.37;;;;;;;14.16;88.55;100755.16;1413345;91;21383;-86
2023/10/04 00:28:02;;;;;;;12.63;6.37;;;;;;;14.15;88.24;100761.45;1414682;91;22431;-87
2023/10/04 00:30:29;;;;;;;12.90;6.07;;;;;;;14.15;88.12;100764.12;1425412;91;21774;-85
2023/10/04 00:32:57;;;;;;;12.77;6.07;;;;;;;14.12;88.03;100771.92;1428188;92;21494;-86
2023/10/04 00:35:25;;;;;;;11.67;6.23;;;;;;;14.11;88.05;100775.59;1426721;92;21443;-85
2023/10/04 00:37:56;;;;;;;20.33;7.40;;;;;;;14.10;87.97;100772.61;1418982;92;21524;-87
2023/10/04 00:40:32;;;;;;;14.37;6.87;;;;;;;14.08;87.90;100771.10;1428277;91;21488;-84
2023/10/04 00:43:01;;;;;;;16.80;7.40;;;;;;;14.06;87.72;100770.42;1420196;91;22470;-85
2023/10/04 00:45:29;;;;;;;15.88;5.58;;;;;;;14.07;88.29;100772.08;1425641;91;21516;-87
2023/10/04 00:47:57;;;;;;;17.60;6.40;;;;;;;14.07;88.73;100765.42;1396687;92;22260;-85
2023/10/04 00:50:27;;;;;;;11.67;5.77;;;;;;;14.10;89.01;100759.80;1399242;92;21405;-85
2023/10/04 00:53:01;;;;;;;13.57;5.37;;;;;;;14.12;88.88;100764.45;1422179;92;21368;-85
2023/10/04 00:55:29;;;;;;;12.90;6.53;;;;;;;14.13;88.76;100762.14;1421837;92;21509;-85
2023/10/04 00:57:57;;;;;;;14.77;7.37;;;;;;;14.14;88.41;100761.13;1426339;92;21509;-86
2023/10/04 01:00:25;;;;;;;16.43;6.83;;;;;;;14.13;88.43;100761.64;1424423;92;21361;-84
2023/10/04 01:02:52;;;;;;;15.90;7.80;;;;;;;14.12;88.21;100764.45;1422970;92;22315;-85
2023/10/04 01:05:23;;;;;;;14.63;6.67;;;;;;;14.13;88.10;100756.81;1427780;92;21398;-86
2023/10/04 01:07:49;;;;;;;22.37;6.97;;;;;;;14.11;88.23;100760.95;1422194;92;21419;-86
2023/10/04 01:10:20;;;;;;;14.10;6.00;;;;;;;14.12;88.16;100767.11;1417247;91;22374;-87
2023/10/04 01:12:49;;;;;;;19.27;6.90;;;;;;;14.12;88.41;100763.11;1423465;91;21456;-87
2023/10/04 01:15:30;;;;;;;15.23;6.93;;;;;;;14.16;89.13;100760.48;1406575;92;22385;-88
2023/10/04 01:18:03;;;;;;;16.17;6.67;;;;;;;14.21;90.12;100760.80;1419247;92;21457;-84
2023/10/04 01:20:33;;;;;;;15.67;7.33;;;;;;;14.24;89.92;100753.81;1430998;91;21414;-85
2023/10/04 01:23:05;;;;;;;11.83;6.42;;;;;;;14.30;89.26;100754.99;1414874;92;21390;-84
2023/10/04 01:25:34;;;;;;;16.70;7.67;;;;;;;14.32;88.97;100765.82;1420243;91;21641;-86
2023/10/04 01:28:12;;;;;;;11.50;6.37;;;;;;;14.32;88.93;100756.50;1426015;92;21397;-85
2023/10/04 01:30:33;;;;;;;12.03;6.40;;;;;;;14.33;88.92;100753.36;1405469;92;21441;-85
2023/10/04 01:33:03;;;;;;;15.63;7.50;;;;;;;14.34;88.70;100745.70;1423816;91;21391;-85
2023/10/04 01:35:27;;;;;;;16.77;7.30;;;;;;;14.33;88.59;100738.22;1419288;92;21524;-84
2023/10/04 01:37:54;;;;;;;13.40;6.87;;;;;;;14.32;88.20;100739.20;1430346;92;22381;-84
2023/10/04 01:40:29;;;;;;;13.20;6.30;;;;;;;14.31;88.27;100748.19;1425641;92;21420;-84
2023/10/04 01:42:55;;;;;;;19.50;7.00;;;;;;;14.33;88.84;100756.86;1422527;92;21487;-83
2023/10/04 01:45:22;;;;;;;13.77;6.03;;;;;;;14.34;88.98;100770.49;1420690;92;21429;-84
2023/10/04 01:47:50;;;;;;;14.13;6.07;;;;;;;14.34;89.04;100759.84;1420319;91;22462;-85
2023/10/04 01:50:18;;;;;;;16.93;7.70;;;;;;;14.38;88.69;100765.66;1422091;92;21877;-85
2023/10/04 01:52:48;;;;;;;14.70;6.47;;;;;;;14.39;88.33;100769.51;1424776;92;22426;-83
2023/10/04 01:55:17;;;;;;;17.07;7.75;;;;;;;14.39;88.14;100762.85;1402955;92;22624;-84
2023/10/04 01:57:43;;;;;;;16.00;7.37;;;;;;;14.40;87.78;100765.01;1426323;91;22336;-83
2023/10/04 02:00:16;;;;;;;12.87;6.73;;;;;;;14.38;87.55;100775.81;1419837;92;21567;-83
2023/10/04 02:02:39;;;;;;;22.47;7.43;;;;;;;14.36;87.57;100772.50;1420775;92;21339;-83
2023/10/04 02:05:11;;;;;;;20.27;7.17;;;;;;;14.34;87.42;100766.50;1421005;92;21516;-83
2023/10/04 02:07:38;;;;;;;16.77;6.90;;;;;;;14.31;87.79;100776.14;1428456;92;21457;-83
2023/10/04 02:10:09;;;;;;;18.83;7.23;;;;;;;14.30;87.55;100775.82;1419425;92;21412;-86
2023/10/04 02:12:36;;;;;;;17.32;7.83;;;;;;;14.27;87.99;100780.14;1421971;92;21450;-86
2023/10/04 02:15:03;;;;;;;16.47;6.90;;;;;;;14.27;88.33;100774.81;1423954;92;21559;-87
2023/10/04 02:17:29;;;;;;;19.00;7.83;;;;;;;14.30;88.69;100770.50;1422477;92;21398;-87
2023/10/04 02:19:55;;;;;;;11.50;6.27;;;;;;;14.33;88.60;100768.01;1404396;92;21472;-87
2023/10/04 02:22:23;;;;;;;16.37;7.30;;;;;;;14.35;88.30;100768.16;1424963;91;22162;-87
2023/10/04 02:24:49;;;;;;;21.07;6.87;;;;;;;14.36;88.14;100763.19;1401539;92;21441;-86
2023/10/04 02:27:17;;;;;;;12.57;6.60;;;;;;;14.34;87.83;100759.02;1422894;91;21375;-88
2023/10/04 02:29:47;;;;;;;19.13;7.07;;;;;;;14.31;87.79;100761.50;1420855;91;21360;-88
2023/10/04 02:32:13;;;;;;;21.03;9.13;;;;;;;14.28;88.72;100756.50;1426853;91;21515;-89
2023/10/04 02:34:41;;;;;;;17.27;8.00;;;;;;;14.25;88.03;100751.52;1418642;91;21361;-87
2023/10/04 02:37:07;;;;;;;17.13;7.30;;;;;;;14.21;88.07;100756.34;1406136;92;21486;-86
2023/10/04 02:39:37;;;;;;;12.37;6.37;;;;;;;14.17;88.56;100744.84;1425311;91;21480;-88
2023/10/04 02:42:09;;;;;;;13.60;6.37;;;;;;;14.18;89.53;100744.69;1424120;92;22270;-87
2023/10/04 02:44:30;;;;;;;18.13;7.97;;;;;;;14.18;89.88;100741.16;1418241;92;21778;-86
2023/10/04 02:46:56;;;;;;;19.20;7.03;;;;;;;14.19;89.60;100741.02;1423502;91;21346;-85
2023/10/04 02:49:23;;;;;;;13.57;6.73;;;;;;;14.19;89.43;100745.52;1417794;91;22485;-87
2023/10/04 02:51:49;;;;;;;17.63;8.13;;;;;;;14.16;89.29;100733.86;1418091;91;21486;-85
2023/10/04 02:54:16;;;;;;;14.83;6.90;;;;;;;14.13;89.17;100735.02;1413779;91;22284;-86
2023/10/04 02:56:45;;;;;;;16.27;6.67;;;;;;;14.14;89.08;100733.19;1416112;91;21450;-85
2023/10/04 02:59:11;;;;;;;15.10;7.43;;;;;;;14.13;89.38;100739.52;1420473;92;21441;-85
2023/10/04 03:01:37;;;;;;;15.93;7.63;;;;;;;14.07;89.53;100729.50;1421325;91;21435;-87
2023/10/04 03:04:04;;;;;;;15.40;7.17;;;;;;;14.05;89.90;100735.50;1402141;92;22396;-86
2023/10/04 03:06:31;;;;;;;13.63;6.93;;;;;;;14.03;90.74;100725.51;1414330;92;21472;-86
2023/10/04 03:08:57;;;;;;;15.63;6.37;;;;;;;14.05;91.38;100723.02;1425307;91;22466;-87
2023/10/04 03:11:25;;;;;;;18.13;7.10;;;;;;;14.06;91.23;100711.87;1421459;91;21397;-85
2023/10/04 03:13:51;;;;;;;14.30;6.83;;;;;;;14.06;91.90;100711.37;1406330;92;22403;-86
2023/10/04 03:16:18;;;;;;;14.63;6.57;;;;;;;14.05;91.90;100716.37;1420853;92;21524;-86
2023/10/04 03:18:45;;;;;;;17.23;6.97;;;;;;;14.03;91.89;100717.52;1427035;91;21383;-85
2023/10/04 03:21:20;;;;;;;16.77;7.57;;;;;;;14.02;91.92;100716.70;1405325;92;21465;-86
2023/10/04 03:23:40;;;;;;;13.07;7.57;;;;;;;14.00;92.11;100727.48;1404039;92;21694;-88
2023/10/04 03:26:07;;;;;;;15.07;7.70;;;;;;;13.99;91.91;100729.00;1418247;91;21428;-84
2023/10/04 03:28:37;;;;;;;16.87;8.30;;;;;;;13.98;92.62;100725.51;1422771;92;21619;-86
2023/10/04 03:31:03;;;;;;;19.13;6.80;;;;;;;14.01;92.83;100744.28;1422276;92;21464;-87
2023/10/04 03:33:33;;;;;;;14.20;7.63;;;;;;;14.02;93.50;100742.48;1420360;91;21398;-86
2023/10/04 03:35:59;;;;;;;13.18;6.28;;;;;;;14.05;93.67;100747.48;1424114;91;21590;-87
2023/10/04 03:38:26;;;;;;;12.37;6.13;;;;;;;14.07;93.51;100760.09;1419434;92;22247;-86
2023/10/04 03:40:55;;;;;;;14.70;6.80;;;;;;;14.06;93.15;100745.97;1420192;92;21361;-87
2023/10/04 03:43:20;;;;;;;20.87;7.07;;;;;;;14.08;92.94;100742.66;1427748;92;22405;-88
2023/10/04 03:45:47;;;;;;;13.47;7.07;;;;;;;14.07;92.91;100732.16;1417504;91;21404;-87
2023/10/04 03:48:16;;;;;;;14.37;6.80;;;;;;;14.07;94.03;100722.84;1421945;92;22345;-87
2023/10/04 03:50:46;;;;;;;13.63;6.13;;;;;;;14.09;93.71;100720.36;1422129;91;22288;-87
2023/10/04 03:53:14;;;;;;;14.87;6.85;;;;;;;14.10;94.24;100718.55;1422661;92;21324;-87
2023/10/04 03:55:46;;;;;;;15.70;6.83;;;;;;;14.10;94.51;100713.23;1420815;92;21578;-86
2023/10/04 03:58:12;;;;;;;;;;;;;;;14.08;95.44;100721.86;1425030;92;21583;-87
2023/10/04 04:00:39;;;;;;;20.03;6.20;;;;;;;13.95;100.00;100752.45;1417510;92;20371;-87
2023/10/04 04:03:06;;;;;;;23.40;8.00;;;;;;;13.78;100.00;100786.61;1422629;92;22419;-88
2023/10/04 04:05:38;;;;;;;11.30;6.20;;;;;;;13.67;100.00;100808.19;1422463;90;21421;-87
2023/10/04 04:08:04;;;;;;;15.83;6.70;;;;;;;13.57;100.00;100834.05;1420459;92;21553;-87
2023/10/04 04:10:31;;;;;;;14.18;6.80;;;;;;;13.46;100.00;100843.95;1422310;92;21531;-88
2023/10/04 04:13:01;;;;;;;14.00;7.07;;;;;;;13.38;100.00;100846.58;1419209;91;21412;-88
2023/10/04 04:15:27;;;;;;;10.67;5.87;;;;;;;13.31;100.00;100849.00;1427909;92;22484;-87
2023/10/04 04:17:54;;;;;;;14.03;6.93;;;;;;;13.28;100.00;100837.84;1422169;92;21397;-91
2023/10/04 04:20:23;;;;;;;18.33;7.50;;;;;;;13.23;100.00;100845.41;1422605;91;21384;-90
2023/10/04 04:22:53;;;;;;;13.70;6.90;;;;;;;13.18;100.00;100852.54;1422239;91;21612;-90
2023/10/04 04:25:21;;;;;;;;;;;;;;;13.12;100.00;100858.94;1420883;92;21420;-90
2023/10/04 04:27:50;;;;;;;15.20;7.47;;;;;;;13.04;100.00;100870.36;1432446;91;20365;-90
2023/10/04 04:30:28;;;;;;;12.60;6.83;;;;;;;12.95;100.00;100866.80;1421795;92;21883;-90
2023/10/04 04:32:57;;;;;;;16.00;7.37;;;;;;;12.88;100.00;100857.75;1421608;92;22528;-91
2023/10/04 04:40:46;;;;;;;14.63;6.45;;;;;;;12.83;100.00;100861.34;1420821;91;21405;-89
2023/10/04 04:45:56;;;;;;;25.87;7.10;;;;;;;12.82;100.00;100871.14;1422049;91;23057;-86
2023/10/04 04:48:25;;;;;;;28.77;9.03;;;;;;;12.81;100.00;100879.28;1426226;92;22404;-84
2023/10/04 04:50:54;;;;;;;18.47;7.77;;;;;;;12.81;100.00;100881.94;1418496;92;22571;-87
2023/10/04 04:53:22;;;;;;;18.40;7.57;;;;;;;12.80;100.00;100885.55;1424762;92;22241;-87
2023/10/04 04:55:50;;;;;;;15.23;6.70;;;;;;;12.80;100.00;100884.23;1424308;92;22417;-83
2023/10/04 04:58:22;;;;;;;19.53;7.70;;;;;;;12.79;100.00;100888.71;1421698;92;22522;-83
2023/10/04 05:00:55;;;;;;;14.93;6.83;;;;;;;12.78;100.00;100899.50;1425150;92;21354;-84
2023/10/04 05:03:19;;;;;;;21.50;7.72;;;;;;;12.81;100.00;100896.54;1418169;92;21604;-84
2023/10/04 05:05:49;;;;;;;16.33;7.10;;;;;;;12.85;100.00;100895.24;1421680;91;21457;-84
2023/10/04 05:08:13;;;;;;;12.53;7.10;;;;;;;12.88;100.00;100898.92;1426182;91;21551;-84
2023/10/04 05:10:40;;;;;;;20.30;8.97;;;;;;;12.92;100.00;100910.08;1416570;92;21391;-84
2023/10/04 05:13:13;;;;;;;18.33;7.03;;;;;;;12.94;100.00;100911.59;1401007;92;21523;-82
2023/10/04 05:15:42;;;;;;;18.33;6.30;;;;;;;12.92;100.00;100931.33;1417002;91;21567;-80
2023/10/04 05:18:17;;;;;;;15.77;6.33;;;;;;;12.88;100.00;100938.27;1423926;91;21419;-84
2023/10/04 05:20:56;;;;;;;16.63;7.40;;;;;;;12.82;100.00;100959.30;1401564;92;21552;-88
2023/10/04 05:23:23;;;;;;;15.40;7.60;;;;;;;12.81;100.00;100960.30;1421972;92;22329;-85
2023/10/04 05:25:51;;;;;;;15.23;8.28;;;;;;;12.81;100.00;100973.57;1423450;92;21391;-86
2023/10/04 05:28:18;;;;;;;16.77;7.83;;;;;;;12.91;100.00;100965.53;1420145;91;22428;-84
2023/10/04 05:30:46;;;;;;;15.33;7.63;;;;;;;13.04;100.00;100970.00;1392544;92;21405;-83
2023/10/04 05:33:15;;;;;;;14.27;6.40;;;;;;;13.16;100.00;100970.12;1419725;92;22247;-84
2023/10/04 05:35:48;;;;;;;13.57;7.07;;;;;;;13.29;100.00;100959.13;1422510;92;22419;-84
2023/10/04 05:38:17;;;;;;;21.67;8.97;;;;;;;13.44;100.00;100956.79;1432476;92;21571;-83
2023/10/04 05:40:48;;;;;;;27.52;9.08;;;;;;;13.59;100.00;100957.07;1432756;92;21375;-83
2023/10/04 05:43:16;;;;;;;14.27;7.00;;;;;;;13.72;100.00;100953.49;1423152;91;21449;-83
2023/10/04 05:45:45;;;;;;;11.37;7.37;;;;;;;13.80;100.00;100970.85;1429225;91;21853;-83
2023/10/04 05:48:14;;;;;;;24.00;8.60;;;;;;;13.92;100.00;100983.41;1417894;91;21331;-82
2023/10/04 05:50:40;;;;;;;19.10;7.90;;;;;;;14.07;100.00;100987.66;1421898;92;22197;-85
2023/10/04 05:53:08;;;;;;;13.90;7.37;;;;;;;14.19;100.00;100990.41;1398902;92;21441;-87
2023/10/04 05:55:36;;;;;;;14.97;7.60;;;;;;;14.29;100.00;100981.80;1422397;92;22190;-89
2023/10/04 05:58:10;;;;;;;16.57;8.60;;;;;;;14.31;100.00;100990.98;1419307;92;21562;-87
2023/10/04 06:00:42;;;;;;;22.83;8.27;;;;;;;14.38;100.00;100997.33;1422642;92;21376;-89
2023/10/04 06:03:11;;;;;;;21.27;8.30;;;;;;;14.42;100.00;101004.02;1421716;92;22492;-89
2023/10/04 06:05:40;;;;;;;18.37;8.67;;;;;;;14.47;100.00;101001.69;1424951;92;22336;-85
2023/10/04 06:08:17;;;;;;;16.80;8.00;;;;;;;14.47;100.00;101001.69;1418903;91;21568;-85
2023/10/04 06:10:40;;;;;;;17.93;8.33;;;;;;;14.46;100.00;100998.70;1422179;92;21553;-85
2023/10/04 06:13:11;;;;;;;19.50;6.80;;;;;;;14.49;100.00;100993.56;1406191;92;21413;-86
2023/10/04 06:15:35;;;;;;;19.83;9.27;;;;;;;14.51;100.00;100992.41;1421180;92;21442;-84
2023/10/04 06:18:04;;;;;;;15.30;8.33;;;;;;;14.53;100.00;100993.59;1419742;92;21947;-85
2023/10/04 06:20:33;;;;;;;21.03;9.57;;;;;;;14.53;100.00;100998.92;1423562;92;21419;-86
2023/10/04 06:23:09;;;;;;;16.90;7.77;;;;;;;14.57;100.00;101001.12;1423099;91;21523;-86
2023/10/04 06:25:45;;;;;;;14.17;7.60;;;;;;;14.64;100.00;101003.97;1422380;92;21400;-86
2023/10/04 06:28:13;;;;;;;14.43;7.87;;;;;;;14.70;100.00;101002.50;1420547;92;21472;-84
2023/10/04 06:31:00;;;;;;;20.10;7.90;;;;;;;14.79;100.00;101010.88;1421585;92;21553;-85
2023/10/04 06:33:26;;;;;;;17.20;7.77;;;;;;;14.82;100.00;101012.72;1501139;91;21229;-85
2023/10/04 06:35:52;;;;;;;18.87;7.60;;;;;;;14.90;100.00;101019.89;1351875;91;21346;-84
2023/10/04 06:38:18;;;;;;;16.60;8.20;;;;;;;14.94;100.00;101020.42;1392178;92;21376;-85
2023/10/04 06:40:44;;;;;;;16.40;7.23;;;;;;;14.91;100.00;101023.42;1479354;92;21340;-84
2023/10/04 06:43:11;;;;;;;21.73;9.23;;;;;;;14.96;100.00;101030.41;1333900;93;21325;-84
2023/10/04 06:49:38;;;;;;;21.20;8.43;;;;;;;15.11;100.00;101031.47;1421518;92;21367;-82
2023/10/04 06:52:13;;;;;;;18.57;8.03;;;;;;;15.22;100.00;101041.84;1417807;92;22514;-82
2023/10/04 06:54:40;;;;;;;19.10;8.80;;;;;;;15.24;100.00;101050.48;1422504;91;21647;-84
2023/10/04 06:57:06;;;;;;;18.77;8.47;;;;;;;15.21;100.00;101056.14;1423450;91;22528;-81
2023/10/04 06:59:35;;;;;;;15.23;8.27;;;;;;;15.26;100.00;101064.50;1399418;92;21411;-84
2023/10/04 07:02:02;;;;;;;12.87;7.03;;;;;;;15.29;100.00;101078.84;1422829;92;22124;-83
2023/10/04 07:04:28;;;;;;;13.60;7.07;;;;;;;15.29;100.00;101077.50;1419310;91;21405;-82
2023/10/04 07:06:55;;;;;;;14.77;7.30;;;;;;;15.27;100.00;101083.49;1420954;91;22381;-84
2023/10/04 07:09:21;;;;;;;16.37;7.70;;;;;;;15.35;100.00;101080.85;1420839;91;21486;-83
2023/10/04 07:11:48;;;;;;;19.83;7.00;;;;;;;15.41;100.00;101091.88;1419743;91;21568;-83
2023/10/04 07:14:14;;;;;;;22.33;8.30;;;;;;;15.38;100.00;101093.53;1424771;92;21361;-91
2023/10/04 07:16:42;;;;;;;36.27;9.40;;;;;;;15.48;100.00;101086.23;1422168;92;21523;-85
2023/10/04 07:19:08;;;;;;;18.07;9.57;;;;;;;15.54;100.00;101098.41;1402074;92;21872;-88
2023/10/04 07:21:34;;;;;;;18.80;9.20;;;;;;;15.64;100.00;101098.76;1402119;92;22329;-88
2023/10/04 07:24:00;;;;;;;14.70;8.13;;;;;;;15.70;100.00;101096.28;1421781;92;21383;-88
2023/10/04 07:26:28;;;;;;;21.53;9.20;;;;;;;15.81;100.00;101095.64;1421975;92;21626;-87
2023/10/04 07:28:55;;;;;;;67.20;11.07;;;;;;;15.93;100.00;101092.98;1419496;92;22231;-87
2023/10/04 07:31:21;;;;;;;14.80;7.30;;;;;;;16.20;100.00;101094.49;1422922;92;21434;-86
2023/10/04 07:33:47;;;;;;;18.80;9.03;;;;;;;16.45;100.00;101092.60;1498291;91;21531;-85
2023/10/04 07:36:19;;;;;;;14.07;7.33;;;;;;;16.65;100.00;101087.20;1351648;91;22219;-86
2023/10/04 07:38:46;;;;;;;18.13;7.37;;;;;;;16.80;100.00;101086.53;1425937;92;21954;-88
2023/10/04 07:41:12;;;;;;;18.70;7.27;;;;;;;16.97;100.00;101094.82;1423757;92;21652;-85
2023/10/04 07:43:39;;;;;;;13.00;7.13;;;;;;;17.07;100.00;101100.81;1420994;91;21361;-84
2023/10/04 07:46:05;;;;;;;13.07;6.80;;;;;;;17.04;100.00;101102.50;1424057;92;21546;-84
2023/10/04 07:48:31;;;;;;;22.60;7.70;;;;;;;17.18;100.00;101097.44;1420037;92;21907;-84
2023/10/04 07:50:57;;;;;;;13.30;7.57;;;;;;;17.30;100.00;101104.05;1350769;92;21317;-86
2023/10/04 07:53:26;;;;;;;16.10;7.83;;;;;;;17.48;100.00;101104.61;1501049;91;21362;-85
2023/10/04 07:55:53;;;;;;;11.47;5.73;;;;;;;17.74;100.00;101104.78;1356052;91;21479;-83
2023/10/04 07:58:19;;;;;;;10.50;5.30;;;;;;;17.86;100.00;101114.60;1351620;92;21243;-84
2023/10/04 08:00:45;;;;;;;11.53;4.37;;;;;;;17.97;98.06;101106.98;1334028;93;21371;-83
2023/10/04 08:03:11;;;;;;;22.58;6.17;;;;;;;18.08;93.85;101104.91;1351567;92;21286;-85
2023/10/04 08:05:39;;;;;;;9.48;4.83;;;;;;;18.14;92.34;101105.00;1351585;92;21482;-86
2023/10/04 08:08:05;;;;;;;11.05;5.55;;;;;;;18.20;91.53;101119.52;1350874;92;21272;-86
2023/10/04 08:10:35;;;;;;;9.08;4.20;;;;;;;18.38;89.56;101109.30;1350901;91;21354;-86
2023/10/04 08:13:03;;;;;;;6.65;4.55;;;;;;;18.46;86.10;101107.87;1347997;91;21295;-86
2023/10/04 08:15:32;;;;;;;9.20;4.47;;;;;;;18.71;86.08;101111.66;1350576;92;21287;-85
2023/10/04 08:17:59;;;;;;;15.28;4.62;;;;;;;18.82;83.35;101107.21;1385952;92;22334;-88
2023/10/04 08:20:32;;;;;;;12.63;4.78;;;;;;;18.79;80.71;101104.91;1421951;92;21338;-88
2023/10/04 08:23:02;;;;;;;11.68;4.83;;;;;;;18.78;79.00;101101.05;1446193;92;21600;-86
2023/10/04 08:25:29;;;;;;;13.93;4.42;;;;;;;18.91;78.23;101112.80;1425132;92;22241;-86
2023/10/04 08:27:56;;;;;;;8.08;3.72;;;;;;;19.00;78.69;101112.19;1420326;92;21902;-85
2023/10/04 08:30:23;;;;;;;15.60;4.35;;;;;;;19.05;76.25;101104.42;1419594;91;21390;-87
2023/10/04 08:32:51;;;;;;;17.98;3.92;;;;;;;19.14;74.75;101116.71;1401054;92;21597;-88
2023/10/04 08:35:21;;;;;;;18.10;4.45;;;;;;;19.19;71.47;101118.84;1349385;92;21338;-87
2023/10/04 08:37:49;;;;;;;12.43;3.92;;;;;;;19.24;70.37;101109.70;1388132;92;22323;-88
2023/10/04 08:40:19;;;;;;;11.28;3.47;;;;;;;19.23;70.05;101110.73;1334479;93;21424;-85
2023/10/04 08:42:50;;;;;;;19.60;4.22;;;;;;;19.23;68.27;101117.44;1382289;91;21450;-86
2023/10/04 08:45:19;;;;;;;7.28;3.45;;;;;;;19.16;68.98;101115.17;1423714;92;21449;-87
2023/10/04 08:47:51;;;;;;;8.45;4.00;;;;;;;19.24;70.03;101117.75;1419873;92;21383;-87
2023/10/04 08:50:51;;;;;;;9.63;3.90;;;;;;;19.32;70.70;101119.50;1420981;92;21398;-87
2023/10/04 08:53:34;;;;;;;9.73;3.70;;;;;;;19.42;70.93;101119.19;1422739;91;21975;-86
2023/10/04 08:56:05;;;;;;;10.68;4.03;;;;;;;19.46;70.01;101119.98;1425186;91;21405;-88
2023/10/04 08:58:32;;;;;;;7.67;3.22;;;;;;;19.53;71.22;101123.55;1417935;92;21465;-89
2023/10/04 09:00:59;;;;;;;8.38;3.47;;;;;;;19.54;69.61;101129.27;1421090;91;21375;-83
2023/10/04 09:03:26;;;;;;;7.85;2.62;;;;;;;19.54;68.93;101139.18;1426647;91;21413;-87
2023/10/04 09:05:54;;;;;;;8.78;3.30;;;;;;;19.52;66.54;101137.19;1418598;92;22196;-87
2023/10/04 09:08:22;;;;;;;9.50;3.17;;;;;;;19.50;65.21;101149.95;1425443;92;21420;-85
2023/10/04 09:10:48;;;;;;;4.55;2.70;;;;;;;19.59;64.65;101148.33;1406598;92;21427;-86
2023/10/04 09:13:14;;;;;;;5.80;2.45;;;;;;;19.64;62.47;101153.11;1416667;92;22307;-88
2023/10/04 09:15:40;;;;;;;7.25;2.87;;;;;;;19.72;60.76;101143.64;1421425;91;21494;-86
2023/10/04 09:18:08;;;;;;;7.83;2.72;;;;;;;19.82;60.04;101151.37;1430155;92;21635;-86
2023/10/04 09:20:35;;;;;;;12.98;2.35;;;;;;;19.86;59.16;101148.64;1415617;92;22212;-86
2023/10/04 09:23:17;;;;;;;5.83;2.95;;;;;;;19.92;59.60;101152.42;1426929;91;21560;-88
2023/10/04 09:25:46;;;;;;;6.50;2.55;;;;;;;19.94;59.31;101144.49;1419653;92;21575;-86
2023/10/04 09:28:12;;;;;;;7.15;2.70;;;;;;;20.07;60.23;101145.12;1427263;92;21493;-87
2023/10/04 09:30:38;;;;;;;4.03;2.45;;;;;;;20.26;60.72;101151.70;1426176;92;21973;-87
2023/10/04 09:33:23;;;;;;;9.50;3.12;;;;;;;20.25;59.69;101155.40;1421573;92;21413;-88
2023/10/04 09:35:51;;;;;;;3.90;2.30;;;;;;;20.14;59.43;101161.29;1425692;91;22344;-87
2023/10/04 09:38:20;;;;;;;4.72;2.42;;;;;;;20.18;60.20;101160.72;1425837;92;21546;-88
2023/10/04 09:40:56;;;;;;;3.90;2.43;;;;;;;20.22;60.07;101149.89;1416365;92;21368;-87
2023/10/04 09:43:35;;;;;;;12.10;2.90;;;;;;;20.46;57.83;101151.87;1415606;92;22248;-88
2023/10/04 09:46:12;;;;;;;5.95;2.70;;;;;;;20.88;56.05;101137.48;1422539;92;21575;-88
2023/10/04 09:48:40;;;;;;;3.35;2.33;;;;;;;20.88;56.05;101137.48;1419917;92;22299;-88
2023/10/04 09:51:07;;;;;;;3.83;2.10;;;;;;;21.27;53.76;101137.89;1421019;91;22477;-85
2023/10/04 09:53:41;;;;;;;6.10;2.35;;;;;;;21.34;51.78;101142.25;1418789;92;21346;-88
2023/10/04 09:56:13;;;;;;;3.50;1.90;;;;;;;21.27;52.18;101145.97;1422424;91;21686;-86
2023/10/04 09:58:51;;;;;;;4.25;2.20;;;;;;;21.23;52.26;101150.08;1418607;92;22280;-88
2023/10/04 10:01:21;;;;;;;5.75;2.77;;;;;;;21.00;52.09;101155.75;1423846;92;21493;-87
2023/10/04 10:03:59;;;;;;;4.15;2.20;;;;;;;21.26;53.24;101149.67;1427746;92;21442;-85
2023/10/04 10:06:29;;;;;;;4.22;1.98;;;;;;;21.39;51.22;101149.77;1422759;91;21637;-85
2023/10/04 10:09:05;;;;;;;4.78;2.50;;;;;;;21.72;50.46;101134.22;1418719;91;21689;-86
2023/10/04 10:11:32;;;;;;;7.55;2.42;;;;;;;21.74;49.23;101128.12;1401760;92;21538;-83
2023/10/04 10:14:01;;;;;;;6.03;2.40;;;;;;;21.88;47.51;101135.19;1422219;91;21316;-85
2023/10/04 10:16:28;;;;;;;5.42;2.00;;;;;;;22.08;48.68;101136.05;1419948;91;21486;-84
2023/10/04 10:18:57;;;;;;;4.00;1.98;;;;;;;21.90;43.21;101137.17;1421888;92;21457;-83
2023/10/04 10:22:02;;;;;;;4.15;1.82;;;;;;;21.94;44.11;101138.94;1423440;92;21419;-85
2023/10/04 10:24:28;;;;;;;6.30;2.30;;;;;;;22.01;45.63;101139.27;1424786;92;21457;-84
2023/10/04 10:27:09;;;;;;;8.80;2.02;;;;;;;22.20;46.18;101137.63;1400085;92;22335;-83
2023/10/04 10:29:39;;;;;;;4.78;2.40;;;;;;;22.17;44.27;101134.49;1401075;92;22277;-85
2023/10/04 10:32:17;;;;;;;7.20;2.67;;;;;;;22.37;45.56;101138.05;1423968;92;22454;-83
2023/10/04 10:34:44;;;;;;;6.85;2.58;;;;;;;22.29;44.52;101135.56;1421592;92;21531;-85
2023/10/04 10:37:20;;;;;;;5.55;2.15;;;;;;;22.36;45.58;101124.27;1419713;92;22322;-84
2023/10/04 10:39:49;;;;;;;11.78;2.40;;;;;;;22.52;44.90;101130.55;1419609;91;21449;-84
2023/10/04 10:42:16;;;;;;;5.17;1.85;;;;;;;22.52;45.14;101134.60;1405637;92;21398;-84
2023/10/04 10:44:43;;;;;;;3.40;1.98;;;;;;;22.44;43.02;101131.30;1423091;91;21464;-84
2023/10/04 10:50:12;;;;;;;4.67;2.37;;;;;;;22.33;43.93;101141.36;1456698;89;21760;-83
2023/10/04 10:52:43;;;;;;;3.83;2.02;;;;;;;22.07;43.83;101134.39;1448606;89;21653;-83
2023/10/04 10:55:17;;;;;;;4.03;1.90;;;;;;;22.00;43.88;101136.76;1451885;89;21405;-84
2023/10/04 10:57:47;;;;;;;5.03;2.50;;;;;;;22.08;44.95;101133.87;1450292;89;21450;-84
2023/10/04 11:02:43;;;;;;;7.03;2.35;;;;;;;22.39;44.85;101135.98;1457261;88;22359;-84
2023/10/04 11:05:12;;;;;;;3.87;2.05;;;;;;;22.58;44.71;101137.51;1450850;89;21517;-83
2023/10/04 11:07:38;;;;;;;8.33;2.37;;;;;;;22.74;43.21;101134.38;1453028;88;21464;-84
2023/10/04 11:10:06;;;;;;;5.85;1.90;;;;;;;22.74;43.68;101137.90;1448939;88;21634;-83
2023/10/04 11:12:38;;;;;;;3.08;2.17;;;;;;;22.74;42.91;101132.50;1450865;88;21369;-83
2023/10/04 11:15:07;;;;;;;4.12;2.02;;;;;;;22.67;43.11;101136.24;1456386;88;21435;-86
2023/10/04 11:17:35;;;;;;;7.05;2.17;;;;;;;22.68;42.38;101133.34;1452840;89;21557;-86
2023/10/04 11:20:17;;;;;;;3.77;2.35;;;;;;;22.66;43.71;101138.64;1459880;88;21428;-84
2023/10/04 11:22:41;;;;;;;3.17;2.02;;;;;;;22.57;42.89;101143.42;1449610;89;21581;-84
2023/10/04 11:25:13;;;;;;;3.58;1.85;;;;;;;22.63;43.60;101140.41;1456220;88;21332;-84
2023/10/04 11:27:43;;;;;;;3.62;1.92;;;;;;;22.57;42.94;101145.30;1456180;89;21405;-84
2023/10/04 11:30:14;;;;;;;;;;;;;;;22.53;43.78;101138.98;1459522;89;21506;-84
2023/10/04 11:32:41;;;;;;;8.78;2.92;;;;;;;22.36;43.43;101135.05;1456392;89;20441;-84
2023/10/04 11:35:08;;;;;;;7.45;2.37;;;;;;;22.42;44.75;101138.78;1455311;89;21383;-84
2023/10/04 11:37:48;;;;;;;5.65;2.72;;;;;;;22.56;44.74;101137.73;1457137;88;22322;-84
2023/10/04 11:40:17;;;;;;;8.85;2.33;;;;;;;22.76;44.57;101140.41;1444716;88;21332;-83
2023/10/04 11:42:45;;;;;;;5.42;2.77;;;;;;;22.95;43.47;101134.13;1454105;89;21368;-84